Status packets of G0WFV - map view · info · telemetry · weather · raw · status · beacons · messages · bulletins · browse · moving · my account
Originating callsign:
Show:

Loading status packets...

APRS status packets are stored for 30 days. It is possible to search using wildcards (*?) after a prefix.

2021-03-06 03:10:03 - 2021-03-06 03:10:03 EST: G0WFV: Weather report derived from: METAR EGXW 060750Z 34003KT 03/M00 Q1035
2021-03-06 04:11:08 - 2021-03-06 04:11:08 EST: G0WFV: Weather report derived from: METAR EGXW 060850Z 36003KT 03/M00 Q1035
2021-03-06 05:10:03 - 2021-03-06 05:10:03 EST: G0WFV: Weather report derived from: METAR EGXW 060950Z 36003KT 04/00 Q1035
2021-03-06 06:10:04 - 2021-03-06 06:10:04 EST: G0WFV: Weather report derived from: METAR EGXW 061050Z 04002KT 05/M01 Q1035
2021-03-06 07:10:07 - 2021-03-06 07:10:07 EST: G0WFV: Weather report derived from: METAR EGXW 061150Z 32002KT 05/M03 Q1035
2021-03-06 08:11:13 - 2021-03-06 08:11:13 EST: G0WFV: Weather report derived from: METAR EGXW 061250Z 03003KT 05/M03 Q1034
2021-03-06 09:10:03 - 2021-03-06 09:10:03 EST: G0WFV: Weather report derived from: METAR EGXW 061350Z 02002KT 05/M03 Q1034
2021-03-06 10:10:04 - 2021-03-06 10:10:04 EST: G0WFV: Weather report derived from: METAR EGXW 061450Z 33002KT 05/M03 Q1033
2021-03-06 11:10:03 - 2021-03-06 11:10:03 EST: G0WFV: Weather report derived from: METAR EGXW 061550Z 26004KT 05/M04 Q1033
2021-03-06 12:10:04 - 2021-03-06 12:10:04 EST: G0WFV: Weather report derived from: METAR EGXW 061650Z 27002KT 04/M04 Q1032
2021-03-06 13:10:03 - 2021-03-06 13:10:03 EST: G0WFV: Weather report derived from: METAR EGXW 061750Z 27002KT 04/M04 Q1032
2021-03-06 14:10:03 - 2021-03-06 14:10:03 EST: G0WFV: Weather report derived from: METAR EGXW 061850Z 21002KT 04/M05 Q1032
2021-03-06 15:10:05 - 2021-03-06 15:10:05 EST: G0WFV: Weather report derived from: METAR EGXW 061950Z 32003KT 04/M04 Q1032
2021-03-06 16:10:03 - 2021-03-06 16:10:03 EST: G0WFV: Weather report derived from: METAR EGXW 062050Z 31002KT 04/M05 Q1032
2021-03-06 17:10:03 - 2021-03-06 17:10:03 EST: G0WFV: Weather report derived from: METAR EGXW 062150Z 07001KT 03/M05 Q1031
2021-03-06 18:10:04 - 2021-03-06 18:10:04 EST: G0WFV: Weather report derived from: METAR EGXW 062250Z 23003KT 03/M05 Q1031
2021-03-06 19:10:03 - 2021-03-06 19:10:03 EST: G0WFV: Weather report derived from: METAR EGXW 062350Z 22003KT 03/M04 Q1030
2021-03-06 20:10:03 - 2021-03-06 20:10:03 EST: G0WFV: Weather report derived from: METAR EGXW 070050Z 27004KT 03/M04 Q1030
2021-03-06 21:10:03 - 2021-03-06 21:10:03 EST: G0WFV: Weather report derived from: METAR EGXW 070150Z 26002KT 02/M04 Q1029
2021-03-06 22:10:03 - 2021-03-06 22:10:03 EST: G0WFV: Weather report derived from: METAR EGXW 070250Z 27004KT 02/M04 Q1029
2021-03-06 23:10:03 - 2021-03-06 23:10:03 EST: G0WFV: Weather report derived from: METAR EGXW 070350Z 28004KT 01/M04 Q1028
2021-03-07 00:10:03 - 2021-03-07 00:10:03 EST: G0WFV: Weather report derived from: METAR EGXW 070450Z 26003KT 00/M05 Q1028
2021-03-07 01:10:03 - 2021-03-07 01:10:03 EST: G0WFV: Weather report derived from: METAR EGXW 070550Z 23003KT 01/M04 Q1028
2021-03-07 02:10:03 - 2021-03-07 02:10:03 EST: G0WFV: Weather report derived from: METAR EGXW 070650Z 24005KT 00/M04 Q1028
2021-03-07 03:10:04 - 2021-03-07 03:10:04 EST: G0WFV: Weather report derived from: METAR EGXW 070750Z 26005KT 01/M04 Q1027
2021-03-07 04:10:03 - 2021-03-07 04:10:03 EST: G0WFV: Weather report derived from: METAR EGXW 070850Z 26005KT 02/M03 Q1027
2021-03-07 05:10:03 - 2021-03-07 05:10:03 EST: G0WFV: Weather report derived from: METAR EGXW 070950Z 27004KT 03/M02 Q1027
2021-03-07 06:10:03 - 2021-03-07 06:10:03 EST: G0WFV: Weather report derived from: METAR EGXW 071050Z 29005KT 05/M02 Q1027
2021-03-07 07:10:03 - 2021-03-07 07:10:03 EST: G0WFV: Weather report derived from: METAR EGXW 071150Z 29005KT 06/M01 Q1026
2021-03-07 08:10:03 - 2021-03-07 08:10:03 EST: G0WFV: Weather report derived from: METAR EGXW 071250Z 27005KT 07/M01 Q1026
2021-03-07 09:10:04 - 2021-03-07 09:10:04 EST: G0WFV: Weather report derived from: METAR EGXW 071350Z 26004KT 08/M01 Q1025
2021-03-07 10:10:03 - 2021-03-07 10:10:03 EST: G0WFV: Weather report derived from: METAR EGXW 071450Z 26005KT 08/M01 Q1024
2021-03-07 11:10:03 - 2021-03-07 11:10:03 EST: G0WFV: Weather report derived from: METAR EGXW 071550Z 30005KT 08/M01 Q1024
2021-03-07 12:10:03 - 2021-03-07 12:10:03 EST: G0WFV: Weather report derived from: METAR EGXW 071650Z 29005KT 08/M00 Q1024
2021-03-07 13:10:03 - 2021-03-07 13:10:03 EST: G0WFV: Weather report derived from: METAR EGXW 071750Z 28003KT 08/M00 Q1024
2021-03-07 14:10:04 - 2021-03-07 14:10:04 EST: G0WFV: Weather report derived from: METAR EGXW 071850Z 27003KT 07/M01 Q1024
2021-03-07 15:10:04 - 2021-03-07 15:10:04 EST: G0WFV: Weather report derived from: METAR EGXW 071950Z 31006KT 07/02 Q1024
2021-03-07 16:10:03 - 2021-03-07 16:10:03 EST: G0WFV: Weather report derived from: METAR EGXW 072050Z 31005KT 06/02 Q1024
2021-03-07 17:10:03 - 2021-03-07 17:10:03 EST: G0WFV: Weather report derived from: METAR EGXW 072150Z 30004KT 06/01 Q1024
2021-03-07 18:10:03 - 2021-03-07 18:10:03 EST: G0WFV: Weather report derived from: METAR EGXW 072250Z 31005KT 05/01 Q1024
2021-03-07 19:10:04 - 2021-03-07 19:10:04 EST: G0WFV: Weather report derived from: METAR EGXW 072350Z 27005KT 05/01 Q1024
2021-03-07 20:10:03 - 2021-03-07 20:10:03 EST: G0WFV: Weather report derived from: METAR EGXW 080050Z 27007KT 04/01 Q1024
2021-03-07 21:10:03 - 2021-03-07 21:10:03 EST: G0WFV: Weather report derived from: METAR EGXW 080150Z 26007KT 03/01 Q1023
2021-03-07 22:10:04 - 2021-03-07 22:10:04 EST: G0WFV: Weather report derived from: METAR EGXW 080250Z 26007KT 03/01 Q1023
2021-03-07 23:10:03 - 2021-03-07 23:10:03 EST: G0WFV: Weather report derived from: METAR EGXW 080350Z 26006KT 03/00 Q1022
2021-03-08 00:10:03 - 2021-03-08 00:10:03 EST: G0WFV: Weather report derived from: METAR EGXW 080450Z 24005KT 03/00 Q1022
2021-03-08 01:10:04 - 2021-03-08 01:10:04 EST: G0WFV: Weather report derived from: METAR EGXW 080550Z 25008KT 03/00 Q1022
2021-03-08 02:10:04 - 2021-03-08 02:10:04 EST: G0WFV: Weather report derived from: METAR EGXW 080650Z 24009KT 03/00 Q1022
2021-03-08 03:10:03 - 2021-03-08 03:10:03 EST: G0WFV: Weather report derived from: METAR EGXW 080750Z 24009KT 03/00 Q1022
2021-03-08 04:10:03 - 2021-03-08 04:10:03 EST: G0WFV: Weather report derived from: METAR EGXW 080850Z 23008KT 04/01 Q1023
< previous
User guide · FAQ · Blog · Discussion group · Linking to aprs.fi · AIS sites · Service status · Database statistics · Advertising on aprs.fi · Technical details · API · Change log · Planned changes · Credits and thanks · Terms Of Service · iPhone/iPad APRS